createdAt,value
2022-09-27T00:01:10.441Z,10.43
2022-09-27T00:03:40.696Z,10.40
2022-09-27T00:06:13.303Z,9.80
2022-09-27T00:08:41.281Z,10.50
2022-09-27T00:11:13.764Z,9.50
2022-09-27T00:13:41.736Z,9.00
2022-09-27T00:16:10.534Z,10.20
2022-09-27T00:18:40.579Z,10.13
2022-09-27T00:21:10.660Z,9.10
2022-09-27T00:23:39.455Z,10.30
2022-09-27T00:26:09.015Z,11.73
2022-09-27T00:28:36.916Z,10.17
2022-09-27T00:31:05.135Z,10.87
2022-09-27T00:33:33.203Z,11.30
2022-09-27T00:36:07.304Z,11.90
2022-09-27T00:38:35.191Z,10.93
2022-09-27T00:41:03.233Z,11.60
2022-09-27T00:43:45.300Z,10.13
2022-09-27T00:46:16.385Z,11.00
2022-09-27T00:48:44.384Z,9.90
2022-09-27T00:51:13.765Z,9.73
2022-09-27T00:53:46.578Z,9.87
2022-09-27T00:56:21.322Z,9.57
2022-09-27T00:58:54.856Z,9.77
2022-09-27T01:01:22.998Z,10.17
2022-09-27T01:03:57.714Z,9.17
2022-09-27T01:06:27.091Z,9.57
2022-09-27T01:08:54.993Z,9.30
2022-09-27T01:11:35.192Z,9.17
2022-09-27T01:14:30.091Z,9.30
2022-09-27T01:17:05.698Z,9.47
2022-09-27T01:20:17.804Z,10.00
2022-09-27T01:23:00.987Z,9.30
2022-09-27T01:25:50.331Z,9.70
2022-09-27T01:28:24.213Z,9.37
2022-09-27T01:30:57.419Z,9.67
2022-09-27T01:33:39.857Z,7.40
2022-09-27T01:36:21.897Z,9.73
2022-09-27T01:39:02.519Z,10.10
2022-09-27T01:41:49.456Z,9.00
2022-09-27T01:44:38.233Z,7.87
2022-09-27T01:47:20.105Z,9.20
2022-09-27T01:50:01.410Z,9.20
2022-09-27T01:52:36.189Z,9.43
2022-09-27T01:55:08.537Z,9.67
2022-09-27T01:58:22.001Z,9.60
2022-09-27T02:00:55.744Z,9.60
2022-09-27T02:03:31.533Z,8.97
2022-09-27T02:06:29.233Z,9.43
2022-09-27T02:09:11.672Z,9.47
2022-09-27T02:12:00.241Z,9.30
2022-09-27T02:14:36.785Z,9.47
2022-09-27T02:17:13.900Z,8.63
2022-09-27T02:19:53.443Z,9.30
2022-09-27T02:22:34.946Z,10.23
2022-09-27T02:25:11.517Z,10.00
2022-09-27T02:27:49.817Z,9.23
2022-09-27T02:30:20.541Z,11.43
2022-09-27T02:32:54.600Z,11.03
2022-09-27T02:35:29.624Z,12.27
2022-09-27T02:37:58.526Z,12.80
2022-09-27T02:40:32.787Z,13.13
2022-09-27T02:43:02.824Z,12.93
2022-09-27T02:45:42.503Z,12.63
2022-09-27T02:48:23.948Z,11.80
2022-09-27T02:51:14.129Z,11.80
2022-09-27T02:53:56.040Z,11.20
2022-09-27T02:56:51.702Z,10.90
2022-09-27T02:59:49.397Z,11.90
2022-09-27T03:02:44.096Z,11.30
2022-09-27T03:05:34.800Z,10.30
2022-09-27T03:08:05.226Z,10.77
2022-09-27T03:10:34.195Z,10.60
2022-09-27T03:13:02.173Z,10.13
2022-09-27T03:15:30.124Z,10.33
2022-09-27T03:18:04.395Z,10.33
2022-09-27T03:20:53.822Z,10.30
2022-09-27T03:23:24.813Z,10.03
2022-09-27T03:25:53.392Z,10.00
2022-09-27T03:28:21.648Z,9.00
2022-09-27T03:30:50.052Z,9.13
2022-09-27T03:33:37.949Z,9.20
2022-09-27T03:36:12.526Z,9.43
2022-09-27T03:38:42.149Z,8.27
2022-09-27T03:41:13.551Z,8.50
2022-09-27T03:43:41.717Z,8.73
2022-09-27T03:46:09.723Z,9.13
2022-09-27T03:48:38.080Z,8.40
2022-09-27T03:51:06.136Z,8.53
2022-09-27T03:53:34.100Z,8.50
2022-09-27T03:56:03.529Z,9.90
2022-09-27T03:58:31.548Z,8.10
2022-09-27T04:00:59.613Z,8.00
2022-09-27T04:03:30.531Z,8.77
2022-09-27T04:06:23.915Z,9.73
2022-09-27T04:08:51.873Z,8.40
2022-09-27T04:11:23.154Z,8.20
2022-09-27T04:13:51.219Z,8.80
2022-09-27T04:16:21.368Z,8.80
2022-09-27T04:19:04.216Z,9.20
2022-09-27T04:21:37.756Z,10.50
2022-09-27T04:24:06.970Z,10.93
2022-09-27T04:26:37.472Z,10.10
2022-09-27T04:29:12.156Z,10.60
2022-09-27T04:31:44.453Z,11.33
2022-09-27T04:34:56.981Z,9.70
2022-09-27T04:37:26.734Z,9.70
2022-09-27T04:40:01.980Z,10.50
2022-09-27T04:42:33.068Z,8.80
2022-09-27T04:45:00.960Z,8.77
2022-09-27T04:47:28.857Z,7.80
2022-09-27T04:49:56.828Z,9.30
2022-09-27T04:52:24.735Z,9.13
2022-09-27T04:54:53.059Z,9.37
2022-09-27T04:57:21.364Z,7.50
2022-09-27T04:59:51.576Z,9.30
2022-09-27T05:02:19.805Z,9.77
2022-09-27T05:05:10.652Z,8.83
2022-09-27T05:07:41.909Z,9.63
2022-09-27T05:10:15.444Z,8.27
2022-09-27T05:12:43.349Z,8.70
2022-09-27T05:15:16.290Z,9.13
2022-09-27T05:18:10.806Z,8.83
2022-09-27T05:21:04.512Z,8.60
2022-09-27T05:23:38.583Z,8.40
2022-09-27T05:26:07.483Z,8.80
2022-09-27T05:28:36.104Z,9.77
2022-09-27T05:31:05.752Z,8.80
2022-09-27T05:33:34.307Z,8.93
2022-09-27T05:36:40.419Z,9.00
2022-09-27T05:39:09.267Z,9.10
2022-09-27T05:41:37.376Z,8.60
2022-09-27T05:44:05.945Z,8.07
2022-09-27T05:46:36.055Z,9.10
2022-09-27T05:49:05.144Z,8.67
2022-09-27T05:51:33.337Z,9.20
2022-09-27T05:54:01.224Z,8.30
2022-09-27T05:56:30.005Z,8.63
2022-09-27T05:59:14.980Z,9.50
2022-09-27T06:02:04.609Z,9.47
2022-09-27T06:04:51.142Z,9.13
2022-09-27T06:07:39.176Z,9.30
2022-09-27T06:10:10.913Z,10.47
2022-09-27T06:12:39.225Z,10.23
2022-09-27T06:15:17.834Z,11.37
2022-09-27T06:17:48.097Z,9.97
2022-09-27T06:20:19.031Z,11.10
2022-09-27T06:22:48.137Z,12.20
2022-09-27T06:25:16.520Z,9.20
2022-09-27T06:28:06.010Z,8.43
2022-09-27T06:30:40.631Z,9.03
2022-09-27T06:33:19.598Z,9.10
2022-09-27T06:35:52.284Z,10.53
2022-09-27T06:38:21.178Z,9.00
2022-09-27T06:40:57.982Z,8.77
2022-09-27T06:43:40.588Z,9.03
2022-09-27T06:46:40.654Z,8.70
2022-09-27T06:49:25.535Z,8.70
2022-09-27T06:51:54.754Z,8.70
2022-09-27T06:54:23.959Z,8.30
2022-09-27T06:56:51.948Z,8.47
2022-09-27T06:59:37.225Z,8.70
2022-09-27T07:02:25.199Z,9.07
2022-09-27T07:05:17.816Z,8.77
2022-09-27T07:08:00.469Z,7.77
2022-09-27T07:10:32.747Z,8.03
2022-09-27T07:13:05.413Z,8.70
2022-09-27T07:15:36.369Z,8.83
2022-09-27T07:18:08.985Z,8.80
2022-09-27T07:20:38.412Z,8.70
2022-09-27T07:23:08.326Z,9.13
2022-09-27T07:25:36.538Z,9.10
2022-09-27T07:28:06.347Z,9.83
2022-09-27T07:30:35.969Z,9.80
2022-09-27T07:33:07.051Z,9.30
2022-09-27T07:35:36.922Z,9.17
2022-09-27T07:38:08.204Z,9.87
2022-09-27T07:40:37.875Z,9.43
2022-09-27T07:43:05.926Z,9.67
2022-09-27T07:45:35.240Z,9.20
2022-09-27T07:48:13.838Z,9.37
2022-09-27T07:51:19.849Z,9.60
2022-09-27T07:53:55.403Z,9.70
2022-09-27T07:56:41.696Z,9.83
2022-09-27T07:59:12.545Z,9.97
2022-09-27T08:01:40.813Z,9.27
2022-09-27T08:04:08.785Z,9.40
2022-09-27T08:06:36.832Z,9.53
2022-09-27T08:09:09.712Z,10.03
2022-09-27T08:11:39.424Z,8.73
2022-09-27T08:14:08.507Z,10.03
2022-09-27T08:16:36.920Z,10.30
2022-09-27T08:19:36.757Z,9.93
2022-09-27T08:22:04.648Z,9.90
2022-09-27T08:25:14.045Z,9.53
2022-09-27T08:28:04.555Z,11.07
2022-09-27T08:30:38.349Z,10.17
2022-09-27T08:33:08.219Z,9.57
2022-09-27T08:35:36.941Z,10.20
2022-09-27T08:38:06.363Z,9.90
2022-09-27T08:40:50.303Z,10.20
2022-09-27T08:43:27.338Z,10.03
2022-09-27T08:46:06.261Z,10.17
2022-09-27T08:48:38.460Z,11.10
2022-09-27T08:51:11.876Z,10.73
2022-09-27T08:53:46.834Z,11.57
2022-09-27T08:56:21.231Z,11.00
2022-09-27T08:58:54.024Z,11.70
2022-09-27T09:01:29.132Z,11.23
2022-09-27T09:04:11.280Z,11.80
2022-09-27T09:06:44.456Z,11.93
2022-09-27T09:09:22.817Z,11.03
2022-09-27T09:12:47.876Z,12.07
2022-09-27T09:15:33.740Z,12.77
2022-09-27T09:18:23.832Z,11.87
2022-09-27T09:21:14.761Z,12.23
2022-09-27T09:24:00.456Z,12.40
2022-09-27T09:26:36.186Z,12.47
2022-09-27T09:29:28.634Z,13.43
2022-09-27T09:32:06.079Z,13.43
2022-09-27T09:34:39.368Z,13.40
2022-09-27T09:37:16.833Z,13.60
2022-09-27T09:39:49.985Z,14.50
2022-09-27T09:42:25.876Z,13.80
2022-09-27T09:45:00.805Z,14.63
2022-09-27T09:47:37.265Z,14.80
2022-09-27T09:50:18.284Z,14.70
2022-09-27T09:52:51.781Z,14.73
2022-09-27T09:55:22.731Z,13.83
2022-09-27T09:58:02.321Z,14.13
2022-09-27T10:00:40.227Z,14.47
2022-09-27T10:03:08.367Z,14.83
2022-09-27T10:05:36.789Z,14.40
2022-09-27T10:08:14.498Z,14.53
2022-09-27T10:10:42.600Z,15.17
2022-09-27T10:13:42.421Z,15.17
2022-09-27T10:16:16.933Z,13.80
2022-09-27T10:18:49.852Z,11.77
2022-09-27T10:21:22.812Z,10.10
2022-09-27T10:24:12.417Z,8.70
2022-09-27T10:27:02.512Z,9.63
2022-09-27T10:29:37.972Z,8.50
2022-09-27T10:32:27.183Z,11.00
2022-09-27T10:35:32.759Z,9.83
2022-09-27T10:38:22.523Z,9.30
2022-09-27T10:40:53.265Z,7.70
2022-09-27T10:43:29.814Z,7.17
2022-09-27T10:46:13.397Z,8.00
2022-09-27T10:48:44.695Z,8.40
2022-09-27T10:51:27.216Z,9.03
2022-09-27T10:54:00.221Z,7.33
2022-09-27T10:56:33.575Z,5.90
2022-09-27T10:59:04.120Z,5.80
2022-09-27T11:01:41.857Z,4.80
2022-09-27T11:04:28.707Z,4.30
2022-09-27T11:07:09.674Z,5.40
2022-09-27T11:09:49.174Z,7.40
2022-09-27T11:12:20.618Z,9.00
2022-09-27T11:15:00.109Z,9.03
2022-09-27T11:17:36.421Z,9.80
2022-09-27T11:20:17.945Z,7.17
2022-09-27T11:23:23.809Z,7.60
2022-09-27T11:26:07.757Z,6.40
2022-09-27T11:28:49.976Z,6.07
2022-09-27T11:31:44.840Z,6.07
2022-09-27T11:34:46.478Z,5.53
2022-09-27T11:37:27.335Z,8.63
2022-09-27T11:40:13.849Z,7.67
2022-09-27T11:43:08.793Z,4.80
2022-09-27T11:46:14.331Z,2.70
2022-09-27T11:48:57.354Z,2.20
2022-09-27T11:51:40.715Z,2.30
2022-09-27T11:54:30.682Z,1.80
2022-09-27T11:57:04.131Z,1.97
2022-09-27T11:59:49.289Z,1.80
2022-09-27T12:02:35.205Z,2.90
2022-09-27T12:05:34.949Z,1.87
2022-09-27T12:08:22.479Z,1.70
2022-09-27T12:10:55.838Z,1.90
2022-09-27T12:13:33.065Z,2.40
2022-09-27T12:16:03.024Z,1.80
2022-09-27T12:18:39.065Z,2.10
2022-09-27T12:21:18.611Z,1.90
2022-09-27T12:23:50.148Z,1.87
2022-09-27T12:26:37.458Z,2.20
2022-09-27T12:29:14.268Z,3.07
2022-09-27T12:31:47.307Z,1.43
2022-09-27T12:34:20.430Z,1.80
2022-09-27T12:36:58.338Z,1.80
2022-09-27T12:39:30.044Z,1.67
2022-09-27T12:42:18.168Z,5.57
2022-09-27T12:44:51.548Z,2.00
2022-09-27T12:47:34.460Z,1.83
2022-09-27T12:50:12.536Z,2.10
2022-09-27T12:52:46.269Z,1.80
2022-09-27T12:55:44.993Z,1.80
2022-09-27T12:58:34.000Z,2.00
2022-09-27T13:01:10.979Z,1.70
2022-09-27T13:03:56.516Z,1.90
2022-09-27T13:06:49.933Z,1.80
2022-09-27T13:09:33.818Z,1.97
2022-09-27T13:12:10.857Z,2.03
2022-09-27T13:14:51.737Z,1.80
2022-09-27T13:17:54.185Z,2.10
2022-09-27T13:20:48.184Z,2.03
2022-09-27T13:24:03.651Z,2.10
2022-09-27T13:26:52.102Z,2.33
2022-09-27T13:29:34.266Z,2.27
2022-09-27T13:32:17.478Z,2.20
2022-09-27T13:35:19.214Z,1.90
2022-09-27T13:37:58.982Z,2.50
2022-09-27T13:40:35.915Z,1.97
2022-09-27T13:43:44.839Z,2.03
2022-09-27T13:46:53.391Z,2.00
2022-09-27T13:49:30.235Z,1.67
2022-09-27T13:52:20.765Z,1.60
2022-09-27T13:54:57.020Z,1.93
2022-09-27T13:57:50.907Z,2.13
2022-09-27T14:00:24.710Z,2.00
2022-09-27T14:03:42.369Z,1.80
2022-09-27T14:06:22.492Z,2.00
2022-09-27T14:08:52.704Z,1.90
2022-09-27T14:11:25.752Z,2.10
2022-09-27T14:13:57.121Z,1.73
2022-09-27T14:16:32.705Z,1.80
2022-09-27T14:19:02.539Z,2.17
2022-09-27T14:21:41.561Z,1.90
2022-09-27T14:24:47.092Z,1.80
2022-09-27T14:27:24.975Z,2.00
2022-09-27T14:30:07.307Z,1.87
2022-09-27T14:32:47.820Z,2.10
2022-09-27T14:35:41.470Z,1.90
2022-09-27T14:38:36.163Z,2.00
2022-09-27T14:41:08.362Z,8.37
2022-09-27T14:43:37.904Z,23.80
2022-09-27T14:46:07.648Z,6.60
2022-09-27T14:48:38.794Z,3.20
2022-09-27T14:51:20.558Z,2.33
2022-09-27T14:53:53.499Z,2.07
2022-09-27T14:56:26.019Z,2.10
2022-09-27T14:59:02.384Z,4.17
2022-09-27T15:01:30.920Z,36.27
2022-09-27T15:04:05.818Z,27.53
2022-09-27T15:06:34.455Z,12.17
2022-09-27T15:09:05.372Z,7.63
2022-09-27T15:11:34.800Z,3.30
2022-09-27T15:14:05.848Z,2.70
2022-09-27T15:16:35.833Z,2.70
2022-09-27T15:19:15.527Z,2.67
2022-09-27T15:21:43.604Z,2.70
2022-09-27T15:24:40.524Z,2.20
2022-09-27T15:27:16.364Z,2.43
2022-09-27T15:29:50.046Z,2.87
2022-09-27T15:32:21.509Z,2.70
2022-09-27T15:34:49.460Z,3.10
2022-09-27T15:37:28.857Z,2.70
2022-09-27T15:40:29.869Z,28.17
2022-09-27T15:43:00.976Z,37.03
2022-09-27T15:45:30.339Z,20.60
2022-09-27T15:48:09.260Z,13.27
2022-09-27T15:50:38.729Z,8.80
2022-09-27T15:53:07.079Z,6.40
2022-09-27T15:55:42.581Z,4.73
2022-09-27T15:58:16.490Z,4.00
2022-09-27T16:00:54.256Z,3.93
2022-09-27T16:03:22.968Z,3.10
2022-09-27T16:05:50.832Z,2.90
2022-09-27T16:08:18.683Z,3.10
2022-09-27T16:10:51.814Z,2.90
2022-09-27T16:13:19.765Z,2.63
2022-09-27T16:15:49.146Z,3.23
2022-09-27T16:18:16.973Z,3.00
2022-09-27T16:20:44.910Z,2.80
2022-09-27T16:23:12.709Z,2.93
2022-09-27T16:25:40.730Z,3.20
2022-09-27T16:28:11.757Z,2.93
2022-09-27T16:30:39.620Z,2.70
2022-09-27T16:33:07.425Z,3.23
2022-09-27T16:35:35.260Z,16.97
2022-09-27T16:38:03.041Z,22.17
2022-09-27T16:40:32.014Z,37.37
2022-09-27T16:42:59.877Z,23.27
2022-09-27T16:45:34.091Z,14.37
2022-09-27T16:48:02.405Z,7.23
2022-09-27T16:50:47.642Z,4.90
2022-09-27T16:53:15.452Z,4.50
2022-09-27T16:55:43.196Z,4.50
2022-09-27T16:58:11.368Z,5.90
2022-09-27T17:00:42.170Z,7.83
2022-09-27T17:03:10.243Z,7.97
2022-09-27T17:05:38.079Z,59.10
2022-09-27T17:08:05.975Z,75.83
2022-09-27T17:10:35.752Z,30.73
2022-09-27T17:13:03.794Z,17.90
2022-09-27T17:15:31.583Z,11.90
2022-09-27T17:18:00.751Z,11.90
2022-09-27T17:20:28.536Z,15.20
2022-09-27T17:22:57.056Z,11.53
2022-09-27T17:25:24.846Z,9.10
2022-09-27T17:27:52.610Z,6.40
2022-09-27T17:30:21.016Z,6.00
2022-09-27T17:32:48.958Z,5.70
2022-09-27T17:35:18.100Z,5.43
2022-09-27T17:37:46.138Z,4.90
2022-09-27T17:40:15.926Z,5.07
2022-09-27T17:42:44.061Z,4.03
2022-09-27T17:45:12.042Z,4.13
2022-09-27T17:47:57.260Z,4.27
2022-09-27T17:50:28.379Z,4.43
2022-09-27T17:52:58.617Z,4.60
2022-09-27T17:55:27.019Z,7.80
2022-09-27T17:57:54.845Z,11.00
2022-09-27T18:00:22.765Z,5.70
2022-09-27T18:02:50.675Z,5.23
2022-09-27T18:05:21.193Z,4.60
2022-09-27T18:07:50.514Z,4.40
2022-09-27T18:10:18.679Z,4.87
2022-09-27T18:12:46.449Z,4.20
2022-09-27T18:15:16.906Z,4.40
2022-09-27T18:17:45.918Z,5.30
2022-09-27T18:20:13.749Z,5.13
2022-09-27T18:22:41.604Z,5.40
2022-09-27T18:25:11.987Z,4.67
2022-09-27T18:27:40.918Z,5.27
2022-09-27T18:30:10.167Z,6.40
2022-09-27T18:32:38.084Z,19.37
2022-09-27T18:35:06.965Z,33.83
2022-09-27T18:37:34.835Z,19.10
2022-09-27T18:40:02.941Z,10.03
2022-09-27T18:42:32.169Z,7.97
2022-09-27T18:44:59.979Z,7.73
2022-09-27T18:47:27.878Z,5.20
2022-09-27T18:49:55.645Z,6.80
2022-09-27T18:52:23.472Z,5.80
2022-09-27T18:54:51.236Z,5.43
2022-09-27T18:57:19.066Z,5.90
2022-09-27T18:59:49.222Z,6.40
2022-09-27T19:02:17.229Z,6.80
2022-09-27T19:04:45.038Z,5.27
2022-09-27T19:07:12.819Z,5.87
2022-09-27T19:09:40.736Z,5.20
2022-09-27T19:12:08.537Z,6.33
2022-09-27T19:14:36.399Z,5.83
2022-09-27T19:17:05.648Z,5.67
2022-09-27T19:19:33.451Z,5.20
2022-09-27T19:22:01.242Z,5.20
2022-09-27T19:24:29.076Z,5.63
2022-09-27T19:26:57.253Z,8.20
2022-09-27T19:29:25.064Z,10.40
2022-09-27T19:31:52.955Z,14.50
2022-09-27T19:34:22.181Z,10.13
2022-09-27T19:36:49.969Z,8.07
2022-09-27T19:39:18.003Z,8.23
2022-09-27T19:41:45.912Z,8.10
2022-09-27T19:44:13.889Z,8.03
2022-09-27T19:46:41.805Z,6.83
2022-09-27T19:49:09.798Z,7.17
2022-09-27T19:51:39.032Z,6.00
2022-09-27T19:54:06.876Z,6.30
2022-09-27T19:56:34.883Z,6.63
2022-09-27T19:59:06.855Z,6.70
2022-09-27T20:01:35.835Z,6.57
2022-09-27T20:04:04.120Z,6.53
2022-09-27T20:06:32.684Z,6.17
2022-09-27T20:09:03.530Z,6.70
2022-09-27T20:11:33.108Z,6.37
2022-09-27T20:14:00.878Z,8.33
2022-09-27T20:16:29.410Z,9.00
2022-09-27T20:18:58.959Z,8.93
2022-09-27T20:21:28.713Z,11.33
2022-09-27T20:23:57.745Z,11.20
2022-09-27T20:26:28.816Z,9.27
2022-09-27T20:28:58.802Z,8.60
2022-09-27T20:31:30.683Z,9.00
2022-09-27T20:33:58.535Z,9.77
2022-09-27T20:36:28.028Z,9.90
2022-09-27T20:39:01.993Z,9.00
2022-09-27T20:41:34.107Z,9.67
2022-09-27T20:44:04.367Z,9.70
2022-09-27T20:46:32.970Z,8.67
2022-09-27T20:49:03.512Z,8.40
2022-09-27T20:51:33.230Z,9.70
2022-09-27T20:54:01.825Z,7.33
2022-09-27T20:56:33.138Z,7.67
2022-09-27T20:59:03.170Z,6.50
2022-09-27T21:01:32.394Z,6.20
2022-09-27T21:04:01.938Z,6.23
2022-09-27T21:06:31.476Z,6.57
2022-09-27T21:09:00.788Z,7.30
2022-09-27T21:11:28.797Z,6.40
2022-09-27T21:13:57.948Z,7.13
2022-09-27T21:16:29.967Z,6.20
2022-09-27T21:18:58.609Z,6.50
2022-09-27T21:21:27.464Z,6.70
2022-09-27T21:23:57.584Z,6.20
2022-09-27T21:26:26.700Z,6.70
2022-09-27T21:28:56.290Z,8.43
2022-09-27T21:31:27.076Z,7.50
2022-09-27T21:33:58.521Z,7.40
2022-09-27T21:36:28.884Z,7.10
2022-09-27T21:38:57.238Z,7.40
2022-09-27T21:41:25.562Z,7.30
2022-09-27T21:43:53.876Z,7.00
2022-09-27T21:46:23.585Z,6.10
2022-09-27T21:48:55.707Z,6.77
2022-09-27T21:51:25.533Z,6.53
2022-09-27T21:53:54.972Z,7.00
2022-09-27T21:56:24.177Z,6.50
2022-09-27T21:58:52.229Z,6.93
2022-09-27T22:01:22.093Z,7.40
2022-09-27T22:03:53.980Z,8.50
2022-09-27T22:06:23.300Z,10.63
2022-09-27T22:08:53.091Z,8.73
2022-09-27T22:11:24.067Z,7.43
2022-09-27T22:13:51.966Z,7.97
2022-09-27T22:16:21.451Z,8.50
2022-09-27T22:18:51.048Z,8.03
2022-09-27T22:21:23.897Z,7.80
2022-09-27T22:23:54.736Z,7.53
2022-09-27T22:26:25.185Z,6.70
2022-09-27T22:28:53.284Z,6.07
2022-09-27T22:31:22.433Z,6.30
2022-09-27T22:33:51.484Z,5.77
2022-09-27T22:36:20.979Z,5.80
2022-09-27T22:38:49.324Z,5.80
2022-09-27T22:41:17.341Z,5.73
2022-09-27T22:43:45.291Z,5.60
2022-09-27T22:46:13.955Z,5.30
2022-09-27T22:48:42.482Z,4.73
2022-09-27T22:51:10.908Z,4.10
2022-09-27T22:53:40.178Z,5.53
2022-09-27T22:56:09.855Z,4.50
2022-09-27T22:58:38.677Z,4.20
2022-09-27T23:01:11.152Z,3.90
2022-09-27T23:03:39.489Z,4.33
2022-09-27T23:06:08.138Z,4.03
2022-09-27T23:08:36.903Z,4.17
2022-09-27T23:11:08.726Z,3.87
2022-09-27T23:13:38.883Z,3.60
2022-09-27T23:16:08.878Z,4.20
2022-09-27T23:18:37.333Z,3.80
2022-09-27T23:21:08.243Z,3.10
2022-09-27T23:23:37.213Z,3.30
2022-09-27T23:26:07.882Z,3.33
2022-09-27T23:28:36.099Z,3.57
2022-09-27T23:31:08.575Z,3.90
2022-09-27T23:33:36.927Z,3.80
2022-09-27T23:36:05.009Z,2.90
2022-09-27T23:38:33.352Z,2.90
2022-09-27T23:41:01.487Z,3.43
2022-09-27T23:43:30.715Z,3.20
2022-09-27T23:45:58.487Z,3.30
2022-09-27T23:48:26.932Z,3.40
2022-09-27T23:50:54.971Z,3.53
2022-09-27T23:53:22.896Z,3.67
2022-09-27T23:56:02.193Z,3.80
2022-09-27T23:58:33.414Z,3.40
